createdAt,value
2018-06-22T00:02:09.132Z,4.33
2018-06-22T00:04:37.632Z,4.43
2018-06-22T00:07:06.280Z,5.00
2018-06-22T00:09:34.529Z,4.70
2018-06-22T00:12:02.970Z,4.80
2018-06-22T00:14:31.437Z,4.83
2018-06-22T00:16:59.799Z,4.40
2018-06-22T00:19:28.229Z,4.30
2018-06-22T00:21:56.716Z,4.80
2018-06-22T00:24:25.427Z,5.03
2018-06-22T00:26:53.985Z,5.33
2018-06-22T00:29:22.620Z,5.10
2018-06-22T00:31:51.182Z,4.90
2018-06-22T00:34:19.710Z,5.80
2018-06-22T00:36:48.290Z,5.73
2018-06-22T00:39:16.857Z,5.47
2018-06-22T00:41:45.423Z,5.80
2018-06-22T00:44:13.972Z,6.00
2018-06-22T00:46:42.529Z,5.30
2018-06-22T00:49:11.162Z,5.27
2018-06-22T00:51:39.566Z,5.13
2018-06-22T00:54:13.489Z,5.50
2018-06-22T00:56:42.013Z,5.57
2018-06-22T00:59:10.938Z,5.20
2018-06-22T01:01:39.348Z,5.90
2018-06-22T01:04:08.449Z,5.40
2018-06-22T01:06:36.918Z,5.23
2018-06-22T01:09:08.208Z,5.60
2018-06-22T01:11:36.800Z,5.37
2018-06-22T01:14:05.665Z,5.43
2018-06-22T01:16:34.292Z,5.20
2018-06-22T01:19:02.704Z,4.87
2018-06-22T01:21:31.312Z,5.10
2018-06-22T01:23:59.842Z,5.50
2018-06-22T01:26:28.312Z,5.00
2018-06-22T01:29:02.116Z,5.67
2018-06-22T01:31:30.545Z,5.53
2018-06-22T01:37:56.557Z,5.30
2018-06-22T01:43:55.441Z,5.40
2018-06-22T01:49:51.640Z,5.50
2018-06-22T01:52:20.101Z,5.47
2018-06-22T01:54:48.589Z,5.40
2018-06-22T01:57:17.043Z,5.67
2018-06-22T01:59:45.662Z,5.10
2018-06-22T02:02:14.116Z,5.47
2018-06-22T02:04:42.558Z,5.33
2018-06-22T02:07:11.028Z,5.47
2018-06-22T02:09:39.582Z,5.53
2018-06-22T02:12:08.118Z,5.23
2018-06-22T02:14:36.573Z,5.20
2018-06-22T02:17:05.017Z,5.60
2018-06-22T02:19:33.517Z,4.93
2018-06-22T02:22:01.921Z,5.27
2018-06-22T02:24:30.461Z,5.53
2018-06-22T02:26:58.941Z,5.60
2018-06-22T02:29:27.670Z,5.30
2018-06-22T02:31:56.076Z,5.40
2018-06-22T02:34:24.882Z,5.67
2018-06-22T02:36:53.414Z,5.10
2018-06-22T02:39:21.825Z,5.37
2018-06-22T02:41:50.463Z,5.60
2018-06-22T02:44:19.003Z,5.47
2018-06-22T02:46:47.580Z,5.67
2018-06-22T02:49:16.020Z,5.53
2018-06-22T02:51:44.469Z,6.17
2018-06-22T02:54:13.025Z,5.40
2018-06-22T02:56:41.573Z,6.20
2018-06-22T02:59:10.134Z,5.70
2018-06-22T03:01:38.639Z,5.43
2018-06-22T03:04:07.226Z,5.90
2018-06-22T03:06:35.761Z,5.43
2018-06-22T03:09:05.944Z,6.60
2018-06-22T03:11:34.412Z,6.00
2018-06-22T03:14:02.904Z,5.70
2018-06-22T03:16:31.478Z,6.50
2018-06-22T03:18:59.927Z,6.10
2018-06-22T03:21:28.342Z,5.90
2018-06-22T03:23:56.816Z,6.33
2018-06-22T03:26:25.429Z,5.93
2018-06-22T03:28:53.911Z,6.07
2018-06-22T03:31:22.524Z,5.57
2018-06-22T03:33:51.028Z,5.90
2018-06-22T03:36:19.403Z,6.80
2018-06-22T03:38:47.873Z,7.20
2018-06-22T03:41:16.319Z,5.83
2018-06-22T03:43:44.771Z,6.30
2018-06-22T03:46:13.237Z,5.73
2018-06-22T03:48:41.616Z,6.83
2018-06-22T03:51:09.779Z,6.50
2018-06-22T03:53:38.336Z,7.07
2018-06-22T03:56:08.054Z,6.20
2018-06-22T03:58:36.659Z,6.00
2018-06-22T04:01:05.166Z,6.03
2018-06-22T04:03:33.660Z,6.40
2018-06-22T04:06:02.142Z,6.30
2018-06-22T04:08:30.558Z,5.53
2018-06-22T04:10:59.149Z,6.13
2018-06-22T04:13:27.535Z,6.20
2018-06-22T04:15:56.065Z,6.30
2018-06-22T04:18:24.598Z,5.93
2018-06-22T04:20:53.300Z,5.87
2018-06-22T04:26:56.428Z,6.23
2018-06-22T04:30:09.933Z,6.30
2018-06-22T04:32:38.361Z,7.23
2018-06-22T04:38:39.463Z,6.47
2018-06-22T04:41:08.044Z,5.97
2018-06-22T04:43:36.562Z,6.67
2018-06-22T04:46:05.007Z,6.00
2018-06-22T04:48:33.451Z,6.37
2018-06-22T04:51:01.862Z,6.80
2018-06-22T04:53:30.356Z,7.60
2018-06-22T04:55:58.885Z,8.30
2018-06-22T04:58:27.300Z,8.30
2018-06-22T05:00:55.745Z,9.03
2018-06-22T05:03:24.174Z,9.03
2018-06-22T05:05:52.690Z,8.50
2018-06-22T05:08:21.171Z,8.00
2018-06-22T05:10:49.615Z,7.50
2018-06-22T05:13:18.382Z,8.93
2018-06-22T05:15:46.874Z,7.07
2018-06-22T05:18:15.221Z,7.20
2018-06-22T05:20:43.704Z,9.07
2018-06-22T05:23:12.211Z,8.33
2018-06-22T05:25:41.909Z,6.60
2018-06-22T05:28:10.341Z,7.03
2018-06-22T05:30:40.204Z,7.13
2018-06-22T05:33:08.713Z,7.50
2018-06-22T05:35:37.261Z,6.47
2018-06-22T05:38:05.876Z,6.77
2018-06-22T05:40:34.480Z,7.17
2018-06-22T05:43:02.925Z,6.50
2018-06-22T05:45:31.558Z,6.60
2018-06-22T05:48:00.136Z,7.53
2018-06-22T05:50:28.351Z,6.70
2018-06-22T05:52:56.880Z,7.40
2018-06-22T05:55:28.833Z,7.30
2018-06-22T05:57:57.439Z,7.50
2018-06-22T06:00:26.140Z,7.10
2018-06-22T06:02:54.889Z,6.87
2018-06-22T06:05:23.691Z,7.03
2018-06-22T06:07:52.320Z,7.60
2018-06-22T06:10:21.070Z,8.27
2018-06-22T06:12:50.141Z,8.07
2018-06-22T06:15:19.189Z,8.47
2018-06-22T06:17:48.230Z,8.73
2018-06-22T06:20:17.125Z,8.77
2018-06-22T06:22:45.936Z,8.90
2018-06-22T06:25:14.701Z,6.90
2018-06-22T06:27:43.285Z,6.47
2018-06-22T06:30:12.282Z,7.83
2018-06-22T06:32:41.200Z,8.50
2018-06-22T06:35:09.944Z,7.50
2018-06-22T06:37:38.801Z,7.00
2018-06-22T06:40:07.201Z,6.97
2018-06-22T06:42:35.979Z,6.60
2018-06-22T06:45:04.490Z,6.80
2018-06-22T06:47:33.019Z,6.40
2018-06-22T06:50:01.836Z,8.17
2018-06-22T06:52:30.370Z,7.63
2018-06-22T06:54:59.098Z,7.87
2018-06-22T06:57:28.028Z,9.07
2018-06-22T06:59:56.756Z,8.77
2018-06-22T07:02:25.681Z,9.43
2018-06-22T07:04:54.490Z,8.67
2018-06-22T07:07:23.393Z,8.57
2018-06-22T07:09:52.138Z,8.33
2018-06-22T07:12:20.798Z,8.50
2018-06-22T07:15:10.940Z,8.83
2018-06-22T07:17:39.909Z,8.20
2018-06-22T07:20:08.907Z,9.00
2018-06-22T07:22:37.766Z,7.67
2018-06-22T07:25:06.564Z,8.47
2018-06-22T07:27:35.289Z,9.00
2018-06-22T07:30:04.003Z,8.30
2018-06-22T07:32:32.735Z,8.60
2018-06-22T07:35:01.637Z,9.10
2018-06-22T07:37:30.445Z,7.90
2018-06-22T07:39:59.219Z,7.90
2018-06-22T07:42:28.175Z,8.20
2018-06-22T07:44:57.022Z,8.10
2018-06-22T07:47:58.127Z,7.67
2018-06-22T07:50:27.012Z,7.93
2018-06-22T07:52:55.228Z,8.00
2018-06-22T07:55:23.991Z,7.67
2018-06-22T07:57:52.693Z,8.00
2018-06-22T08:00:21.528Z,7.77
2018-06-22T08:02:50.077Z,7.80
2018-06-22T08:05:19.066Z,8.60
2018-06-22T08:07:47.988Z,8.00
2018-06-22T08:10:17.058Z,8.70
2018-06-22T08:12:46.572Z,8.53
2018-06-22T08:15:21.213Z,8.90
2018-06-22T08:17:50.087Z,8.50
2018-06-22T08:20:19.131Z,8.10
2018-06-22T08:22:48.097Z,8.50
2018-06-22T08:25:16.923Z,7.67
2018-06-22T08:27:45.608Z,8.50
2018-06-22T08:30:14.264Z,8.40
2018-06-22T08:32:43.053Z,9.17
2018-06-22T08:35:11.857Z,9.80
2018-06-22T08:37:40.660Z,9.50
2018-06-22T08:40:09.657Z,8.87
2018-06-22T08:42:38.492Z,9.13
2018-06-22T08:45:07.496Z,9.20
2018-06-22T08:47:36.292Z,10.23
2018-06-22T08:50:06.045Z,8.87
2018-06-22T08:52:34.824Z,9.30
2018-06-22T08:55:03.736Z,8.67
2018-06-22T08:57:32.598Z,12.87
2018-06-22T09:00:01.341Z,33.00
2018-06-22T09:02:30.073Z,32.60
2018-06-22T09:04:58.989Z,27.80
2018-06-22T09:07:27.801Z,15.87
2018-06-22T09:09:56.491Z,11.80
2018-06-22T09:12:25.429Z,9.47
2018-06-22T09:15:28.117Z,11.70
2018-06-22T09:17:56.787Z,13.23
2018-06-22T09:20:25.729Z,10.83
2018-06-22T09:22:54.275Z,9.63
2018-06-22T09:25:23.145Z,9.20
2018-06-22T09:27:52.241Z,9.13
2018-06-22T09:30:21.092Z,8.70
2018-06-22T09:32:49.971Z,10.43
2018-06-22T09:35:18.805Z,9.93
2018-06-22T09:37:47.545Z,10.60
2018-06-22T09:40:16.457Z,11.80
2018-06-22T09:42:45.296Z,11.10
2018-06-22T09:45:14.104Z,9.70
2018-06-22T09:47:42.877Z,9.10
2018-06-22T09:50:11.777Z,8.53
2018-06-22T09:52:40.512Z,8.80
2018-06-22T09:55:09.441Z,8.80
2018-06-22T09:57:39.014Z,11.50
2018-06-22T10:00:07.712Z,9.57
2018-06-22T10:02:36.656Z,8.87
2018-06-22T10:05:05.590Z,9.30
2018-06-22T10:07:34.313Z,8.93
2018-06-22T10:10:03.220Z,9.70
2018-06-22T10:12:31.958Z,9.93
2018-06-22T10:15:44.740Z,9.43
2018-06-22T10:18:13.706Z,9.40
2018-06-22T10:20:43.889Z,9.20
2018-06-22T10:23:12.767Z,9.27
2018-06-22T10:25:43.522Z,9.57
2018-06-22T10:28:12.336Z,9.20
2018-06-22T10:30:42.154Z,8.40
2018-06-22T10:33:10.856Z,8.43
2018-06-22T10:35:41.256Z,8.07
2018-06-22T10:38:10.243Z,8.20
2018-06-22T10:40:39.001Z,7.77
2018-06-22T10:43:07.878Z,6.50
2018-06-22T10:45:36.908Z,6.60
2018-06-22T10:48:05.652Z,6.60
2018-06-22T10:50:34.594Z,8.03
2018-06-22T10:53:03.412Z,8.27
2018-06-22T10:55:32.189Z,7.20
2018-06-22T10:58:00.997Z,9.23
2018-06-22T11:00:29.769Z,7.50
2018-06-22T11:02:58.442Z,7.43
2018-06-22T11:05:27.365Z,7.00
2018-06-22T11:07:56.089Z,6.73
2018-06-22T11:10:25.058Z,6.70
2018-06-22T11:12:53.913Z,6.57
2018-06-22T11:16:00.609Z,7.63
2018-06-22T11:18:29.612Z,7.07
2018-06-22T11:20:58.498Z,6.60
2018-06-22T11:23:27.272Z,6.87
2018-06-22T11:25:55.796Z,6.87
2018-06-22T11:28:24.499Z,7.50
2018-06-22T11:31:33.171Z,7.13
2018-06-22T11:34:02.078Z,7.30
2018-06-22T11:36:31.304Z,7.60
2018-06-22T11:39:00.200Z,7.50
2018-06-22T11:41:28.905Z,7.80
2018-06-22T11:43:58.123Z,6.87
2018-06-22T11:46:26.816Z,7.50
2018-06-22T11:48:55.605Z,6.17
2018-06-22T11:51:24.288Z,6.50
2018-06-22T11:53:53.045Z,5.70
2018-06-22T11:56:21.888Z,5.40
2018-06-22T11:58:50.859Z,5.40
2018-06-22T12:01:19.943Z,5.53
2018-06-22T12:03:48.900Z,5.70
2018-06-22T12:06:17.648Z,5.30
2018-06-22T12:08:46.514Z,5.53
2018-06-22T12:11:18.700Z,5.60
2018-06-22T12:13:47.642Z,5.53
2018-06-22T12:16:16.684Z,5.20
2018-06-22T12:18:45.658Z,5.30
2018-06-22T12:21:14.634Z,4.80
2018-06-22T12:23:43.358Z,4.83
2018-06-22T12:26:12.171Z,5.03
2018-06-22T12:28:41.161Z,5.10
2018-06-22T12:31:10.184Z,5.00
2018-06-22T12:33:38.991Z,5.50
2018-06-22T12:36:07.783Z,5.27
2018-06-22T12:38:36.728Z,4.90
2018-06-22T12:41:05.753Z,4.77
2018-06-22T12:43:34.681Z,4.53
2018-06-22T12:46:03.432Z,4.40
2018-06-22T12:48:32.302Z,4.33
2018-06-22T12:51:01.291Z,4.10
2018-06-22T12:53:29.736Z,4.10
2018-06-22T12:55:58.364Z,4.30
2018-06-22T12:58:26.878Z,5.03
2018-06-22T13:00:55.795Z,5.70
2018-06-22T13:03:24.535Z,6.30
2018-06-22T13:05:53.377Z,5.90
2018-06-22T13:08:22.063Z,4.90
2018-06-22T13:10:51.015Z,4.63
2018-06-22T13:13:20.104Z,4.43
2018-06-22T13:16:22.577Z,4.70
2018-06-22T13:18:51.295Z,5.43
2018-06-22T13:21:20.229Z,6.13
2018-06-22T13:23:49.219Z,5.70
2018-06-22T13:26:17.981Z,5.80
2018-06-22T13:28:46.849Z,5.43
2018-06-22T13:31:15.717Z,6.33
2018-06-22T13:33:44.661Z,5.90
2018-06-22T13:36:13.203Z,5.50
2018-06-22T13:38:42.091Z,5.40
2018-06-22T13:41:10.853Z,5.87
2018-06-22T13:43:39.659Z,5.80
2018-06-22T13:46:08.045Z,5.10
2018-06-22T13:48:36.788Z,5.50
2018-06-22T13:51:05.674Z,5.40
2018-06-22T13:53:34.132Z,5.00
2018-06-22T13:56:03.055Z,6.27
2018-06-22T13:58:32.179Z,5.60
2018-06-22T14:01:00.850Z,5.77
2018-06-22T14:03:29.645Z,6.20
2018-06-22T14:06:03.686Z,5.87
2018-06-22T14:08:32.564Z,5.37
2018-06-22T14:11:01.403Z,5.83
2018-06-22T14:13:30.375Z,5.73
2018-06-22T14:16:39.251Z,4.97
2018-06-22T14:19:08.540Z,5.17
2018-06-22T14:21:37.273Z,5.70
2018-06-22T14:24:06.882Z,5.97
2018-06-22T14:26:35.704Z,5.97
2018-06-22T14:29:04.669Z,5.53
2018-06-22T14:31:33.689Z,5.47
2018-06-22T14:34:02.590Z,4.90
2018-06-22T14:36:31.686Z,4.83
2018-06-22T14:39:00.478Z,5.53
2018-06-22T14:41:29.500Z,5.17
2018-06-22T14:43:58.438Z,5.10
2018-06-22T14:46:27.223Z,5.50
2018-06-22T14:48:56.104Z,4.90
2018-06-22T14:51:25.162Z,5.07
2018-06-22T14:53:59.647Z,5.07
2018-06-22T14:56:33.672Z,5.50
2018-06-22T14:59:07.990Z,5.00
2018-06-22T15:01:42.260Z,4.93
2018-06-22T15:04:16.515Z,5.20
2018-06-22T15:06:50.566Z,4.90
2018-06-22T15:09:19.020Z,5.37
2018-06-22T15:11:47.865Z,5.70
2018-06-22T15:14:18.985Z,5.90
2018-06-22T15:16:53.936Z,5.90
2018-06-22T15:19:22.497Z,4.83
2018-06-22T15:21:50.976Z,4.77
2018-06-22T15:24:19.556Z,4.63
2018-06-22T15:26:48.247Z,5.57
2018-06-22T15:29:16.892Z,5.17
2018-06-22T15:31:45.524Z,4.53
2018-06-22T15:34:19.531Z,4.90
2018-06-22T15:36:53.733Z,5.77
2018-06-22T15:39:27.824Z,5.40
2018-06-22T15:42:02.086Z,5.50
2018-06-22T15:44:36.108Z,5.80
2018-06-22T15:47:10.127Z,5.90
2018-06-22T15:49:44.104Z,5.97
2018-06-22T15:52:18.041Z,6.00
2018-06-22T15:54:52.060Z,5.40
2018-06-22T15:57:20.623Z,5.20
2018-06-22T15:59:49.122Z,6.07
2018-06-22T16:03:23.741Z,6.20
2018-06-22T16:05:52.095Z,6.00
2018-06-22T16:08:20.569Z,5.30
2018-06-22T16:10:49.139Z,5.63
2018-06-22T16:13:20.886Z,6.13
2018-06-22T16:18:57.489Z,6.10
2018-06-22T16:21:31.376Z,6.10
2018-06-22T16:24:05.558Z,5.70
2018-06-22T16:26:39.462Z,5.50
2018-06-22T16:29:08.089Z,5.40
2018-06-22T16:31:36.639Z,5.33
2018-06-22T16:34:05.289Z,5.33
2018-06-22T16:36:34.025Z,5.60
2018-06-22T16:39:03.351Z,5.40
2018-06-22T16:41:31.931Z,5.50
2018-06-22T16:44:00.466Z,5.70
2018-06-22T16:46:30.030Z,5.30
2018-06-22T16:48:59.353Z,4.87
2018-06-22T16:51:27.964Z,5.57
2018-06-22T16:53:56.407Z,5.70
2018-06-22T16:56:25.593Z,5.30
2018-06-22T16:58:54.145Z,5.07
2018-06-22T17:01:22.596Z,5.70
2018-06-22T17:03:51.164Z,5.73
2018-06-22T17:06:19.669Z,5.90
2018-06-22T17:08:53.648Z,6.67
2018-06-22T17:11:27.669Z,6.87
2018-06-22T17:14:01.685Z,5.93
2018-06-22T17:17:10.411Z,6.37
2018-06-22T17:19:38.810Z,5.97
2018-06-22T17:22:07.580Z,6.37
2018-06-22T17:24:36.046Z,6.10
2018-06-22T17:27:09.077Z,6.07
2018-06-22T17:29:37.529Z,6.27
2018-06-22T17:32:06.099Z,7.00
2018-06-22T17:34:34.657Z,6.53
2018-06-22T17:37:03.197Z,5.93
2018-06-22T17:39:31.831Z,5.70
2018-06-22T17:42:00.505Z,6.13
2018-06-22T17:44:28.820Z,6.50
2018-06-22T17:46:57.290Z,6.10
2018-06-22T17:49:25.943Z,6.40
2018-06-22T17:51:54.421Z,6.23
2018-06-22T17:54:23.376Z,6.87
2018-06-22T17:56:52.373Z,7.27
2018-06-22T17:59:26.394Z,7.17
2018-06-22T18:02:00.406Z,7.17
2018-06-22T18:04:34.518Z,7.10
2018-06-22T18:07:08.790Z,7.63
2018-06-22T18:09:42.886Z,8.03
2018-06-22T18:12:16.781Z,8.57
2018-06-22T18:15:18.061Z,8.30
2018-06-22T18:17:46.939Z,7.97
2018-06-22T18:20:16.904Z,7.50
2018-06-22T18:22:45.931Z,8.40
2018-06-22T18:25:15.241Z,7.33
2018-06-22T18:27:44.101Z,7.10
2018-06-22T18:30:14.072Z,6.97
2018-06-22T18:32:42.907Z,6.43
2018-06-22T18:35:13.512Z,5.43
2018-06-22T18:37:42.469Z,5.23
2018-06-22T18:40:12.217Z,4.67
2018-06-22T18:42:41.575Z,4.70
2018-06-22T18:45:11.940Z,4.87
2018-06-22T18:47:41.771Z,5.13
2018-06-22T18:50:10.712Z,6.20
2018-06-22T18:52:44.901Z,6.23
2018-06-22T18:55:19.439Z,5.67
2018-06-22T18:57:54.040Z,6.20
2018-06-22T19:00:28.696Z,5.80
2018-06-22T19:03:03.083Z,5.90
2018-06-22T19:05:32.256Z,5.57
2018-06-22T19:08:02.379Z,5.40
2018-06-22T19:10:31.627Z,4.97
2018-06-22T19:13:01.093Z,5.60
2018-06-22T19:19:02.688Z,5.00
2018-06-22T19:21:32.060Z,4.80
2018-06-22T19:24:01.440Z,5.60
2018-06-22T19:26:30.716Z,5.20
2018-06-22T19:29:00.080Z,5.00
2018-06-22T19:31:29.516Z,4.70
2018-06-22T19:33:58.761Z,5.53
2018-06-22T19:36:28.177Z,4.50
2018-06-22T19:38:57.415Z,4.70
2018-06-22T19:41:26.780Z,5.50
2018-06-22T19:44:01.244Z,5.40
2018-06-22T19:46:35.813Z,4.67
2018-06-22T19:49:10.267Z,4.90
2018-06-22T19:51:44.788Z,5.67
2018-06-22T19:54:14.036Z,4.93
2018-06-22T19:56:43.397Z,5.17
2018-06-22T19:59:12.696Z,5.33
2018-06-22T20:01:41.986Z,5.70
2018-06-22T20:04:11.213Z,6.57
2018-06-22T20:06:39.937Z,5.90
2018-06-22T20:09:10.565Z,5.93
2018-06-22T20:11:39.825Z,6.10
2018-06-22T20:14:29.391Z,5.00
2018-06-22T20:17:44.847Z,6.20
2018-06-22T20:20:14.252Z,5.27
2018-06-22T20:22:43.500Z,5.23
2018-06-22T20:25:27.586Z,5.47
2018-06-22T20:28:45.136Z,5.47
2018-06-22T20:31:19.599Z,5.37
2018-06-22T20:33:48.799Z,4.93
2018-06-22T20:36:23.160Z,5.10
2018-06-22T20:38:57.752Z,5.40
2018-06-22T20:41:32.221Z,5.30
2018-06-22T20:44:06.693Z,4.97
2018-06-22T20:46:41.285Z,5.50
2018-06-22T20:49:15.501Z,4.80
2018-06-22T20:51:45.106Z,4.97
2018-06-22T20:54:14.848Z,4.73
2018-06-22T20:56:44.216Z,4.90
2018-06-22T20:59:13.414Z,5.90
2018-06-22T21:01:42.492Z,4.70
2018-06-22T21:04:11.085Z,4.80
2018-06-22T21:06:39.776Z,4.70
2018-06-22T21:09:09.900Z,4.20
2018-06-22T21:11:38.519Z,4.20
2018-06-22T21:14:11.770Z,3.80
2018-06-22T21:20:15.851Z,3.97
2018-06-22T21:22:44.401Z,4.00
2018-06-22T21:25:13.020Z,3.70
2018-06-22T21:28:47.925Z,3.53
2018-06-22T21:31:21.833Z,3.60
2018-06-22T21:33:55.863Z,3.20
2018-06-22T21:36:29.729Z,3.50
2018-06-22T21:39:01.216Z,2.90
2018-06-22T21:41:29.875Z,3.10
2018-06-22T21:43:58.708Z,2.80
2018-06-22T21:46:27.293Z,3.20
2018-06-22T21:48:55.983Z,3.37
2018-06-22T21:51:24.575Z,3.10
2018-06-22T21:53:53.444Z,3.00
2018-06-22T21:56:21.933Z,2.73
2018-06-22T21:58:50.493Z,2.30
2018-06-22T22:01:19.157Z,2.20
2018-06-22T22:03:47.764Z,2.27
2018-06-22T22:06:16.157Z,2.07
2018-06-22T22:08:44.649Z,2.20
2018-06-22T22:11:13.653Z,2.40
2018-06-22T22:13:42.106Z,2.20
2018-06-22T22:16:10.612Z,1.90
2018-06-22T22:18:39.052Z,1.80
2018-06-22T22:21:07.638Z,1.93
2018-06-22T22:23:36.322Z,1.67
2018-06-22T22:26:04.856Z,1.30
2018-06-22T22:28:33.432Z,1.40
2018-06-22T22:31:01.880Z,1.30
2018-06-22T22:33:30.382Z,1.30
2018-06-22T22:35:58.791Z,1.00
2018-06-22T22:38:27.335Z,1.10
2018-06-22T22:40:55.704Z,1.20
2018-06-22T22:43:24.540Z,1.30
2018-06-22T22:45:52.965Z,1.30
2018-06-22T22:48:21.301Z,1.47
2018-06-22T22:50:49.840Z,0.90
2018-06-22T22:53:18.394Z,1.10
2018-06-22T22:55:46.909Z,1.10
2018-06-22T22:58:15.460Z,1.50
2018-06-22T23:00:45.724Z,1.50
2018-06-22T23:03:14.371Z,1.40
2018-06-22T23:05:44.574Z,1.23
2018-06-22T23:08:13.144Z,1.30
2018-06-22T23:10:41.631Z,1.20
2018-06-22T23:13:10.127Z,1.30
2018-06-22T23:15:38.799Z,1.30
2018-06-22T23:18:07.301Z,1.40
2018-06-22T23:20:35.903Z,1.20
2018-06-22T23:23:15.470Z,1.20
2018-06-22T23:25:45.656Z,1.10
2018-06-22T23:28:14.197Z,1.13
2018-06-22T23:30:44.326Z,1.23
2018-06-22T23:33:12.888Z,1.00
2018-06-22T23:35:41.437Z,1.00
2018-06-22T23:38:09.884Z,1.00
2018-06-22T23:40:38.280Z,0.97
2018-06-22T23:43:06.783Z,1.23
2018-06-22T23:45:35.172Z,1.03
2018-06-22T23:48:03.762Z,0.97
2018-06-22T23:50:32.287Z,0.93
2018-06-22T23:53:00.697Z,1.10
2018-06-22T23:55:29.312Z,1.30
2018-06-22T23:57:57.816Z,0.90
